createdAt,value
2022-10-20T00:00:40.437Z,18.07
2022-10-20T00:01:43.584Z,18.17
2022-10-20T00:02:45.945Z,18.25
2022-10-20T00:03:49.056Z,18.35
2022-10-20T00:04:51.015Z,18.42
2022-10-20T00:05:53.753Z,18.50
2022-10-20T00:06:56.853Z,18.56
2022-10-20T00:07:59.193Z,18.63
2022-10-20T00:09:02.300Z,18.70
2022-10-20T00:10:06.617Z,18.76
2022-10-20T00:11:09.151Z,18.82
2022-10-20T00:12:11.804Z,18.87
2022-10-20T00:13:14.303Z,18.92
2022-10-20T00:14:16.287Z,18.98
2022-10-20T00:15:18.270Z,19.01
2022-10-20T00:16:21.702Z,19.05
2022-10-20T00:17:23.821Z,19.09
2022-10-20T00:18:26.363Z,19.14
2022-10-20T00:19:28.340Z,19.17
2022-10-20T00:20:30.537Z,19.20
2022-10-20T00:21:32.697Z,19.22
2022-10-20T00:22:35.860Z,19.25
2022-10-20T00:23:38.202Z,19.28
2022-10-20T00:24:40.789Z,19.30
2022-10-20T00:25:42.984Z,19.33
2022-10-20T00:26:45.511Z,19.38
2022-10-20T00:27:47.581Z,19.38
2022-10-20T00:28:50.434Z,19.40
2022-10-20T00:29:52.491Z,19.41
2022-10-20T00:30:55.570Z,19.44
2022-10-20T00:31:57.541Z,19.45
2022-10-20T00:32:59.730Z,19.47
2022-10-20T00:34:01.814Z,19.48
2022-10-20T00:35:05.308Z,19.50
2022-10-20T00:36:10.428Z,19.51
2022-10-20T00:37:13.003Z,19.52
2022-10-20T00:38:16.265Z,19.53
2022-10-20T00:39:18.270Z,19.54
2022-10-20T00:40:20.445Z,19.55
2022-10-20T00:41:23.510Z,19.55
2022-10-20T00:42:25.641Z,19.56
2022-10-20T00:45:17.579Z,19.69
2022-10-20T00:46:25.589Z,19.59
2022-10-20T00:47:37.379Z,19.58
2022-10-20T00:48:40.318Z,19.57
2022-10-20T00:49:42.999Z,19.58
2022-10-20T00:50:51.861Z,19.59
2022-10-20T00:51:53.892Z,19.59
2022-10-20T00:52:56.211Z,19.59
2022-10-20T00:55:20.044Z,19.72
2022-10-20T00:56:22.277Z,19.60
2022-10-20T00:57:24.348Z,19.60
2022-10-20T00:58:26.459Z,19.60
2022-10-20T00:59:31.241Z,19.61
2022-10-20T01:00:33.374Z,19.61
2022-10-20T01:01:37.878Z,19.61
2022-10-20T01:02:41.950Z,19.64
2022-10-20T01:03:46.477Z,19.64
2022-10-20T01:04:48.536Z,19.65
2022-10-20T01:05:52.082Z,19.65
2022-10-20T01:06:54.838Z,19.65
2022-10-20T01:07:56.902Z,19.65
2022-10-20T01:08:59.457Z,19.64
2022-10-20T01:10:02.165Z,19.65
2022-10-20T01:11:13.151Z,19.66
2022-10-20T01:12:22.118Z,19.66
2022-10-20T01:14:46.413Z,19.76
2022-10-20T01:17:44.554Z,19.76
2022-10-20T01:20:28.410Z,19.75
2022-10-20T01:21:46.527Z,19.64
2022-10-20T01:23:20.066Z,19.64
2022-10-20T01:24:32.270Z,19.63
2022-10-20T01:25:58.871Z,19.61
2022-10-20T01:27:23.093Z,19.59
2022-10-20T01:28:28.985Z,19.58
2022-10-20T01:31:04.529Z,19.67
2022-10-20T01:32:22.419Z,19.55
2022-10-20T01:33:40.699Z,19.54
2022-10-20T01:34:48.063Z,19.53
2022-10-20T01:36:01.650Z,19.54
2022-10-20T01:37:19.741Z,19.53
2022-10-20T01:38:24.368Z,19.53
2022-10-20T01:39:30.262Z,19.52
2022-10-20T01:42:02.999Z,19.64
2022-10-20T01:43:07.649Z,19.53
2022-10-20T01:44:10.803Z,19.52
2022-10-20T01:45:13.444Z,19.52
2022-10-20T01:46:17.356Z,19.53
2022-10-20T01:47:19.963Z,19.54
2022-10-20T01:48:23.349Z,19.53
2022-10-20T01:49:25.392Z,19.55
2022-10-20T01:50:27.578Z,19.56
2022-10-20T01:51:29.996Z,19.57
2022-10-20T01:52:33.292Z,19.57
2022-10-20T01:53:35.994Z,19.57
2022-10-20T01:54:38.140Z,19.58
2022-10-20T01:55:40.464Z,19.59
2022-10-20T01:58:19.794Z,19.71
2022-10-20T01:59:43.492Z,19.61
2022-10-20T02:00:46.391Z,19.61
2022-10-20T02:01:57.964Z,19.60
2022-10-20T02:05:06.611Z,19.71
2022-10-20T02:06:13.197Z,19.59
2022-10-20T02:07:18.946Z,19.59
2022-10-20T02:08:27.939Z,19.58
2022-10-20T02:09:36.946Z,19.57
2022-10-20T02:10:47.577Z,19.57
2022-10-20T02:13:08.293Z,19.66
2022-10-20T02:14:12.046Z,19.56
2022-10-20T02:15:17.234Z,19.56
2022-10-20T02:17:46.349Z,19.68
2022-10-20T02:18:48.370Z,19.56
2022-10-20T02:19:51.667Z,19.58
2022-10-20T02:20:55.271Z,19.58
2022-10-20T02:21:57.411Z,19.57
2022-10-20T02:23:00.156Z,19.58
2022-10-20T02:24:05.099Z,19.58
2022-10-20T02:26:22.885Z,19.69
2022-10-20T02:27:31.692Z,19.58
2022-10-20T02:28:34.934Z,19.58
2022-10-20T02:30:53.105Z,19.72
2022-10-20T02:31:55.619Z,19.60
2022-10-20T02:32:57.697Z,19.59
2022-10-20T02:34:00.827Z,19.60
2022-10-20T02:35:08.900Z,19.61
2022-10-20T02:36:19.640Z,19.61
2022-10-20T02:37:21.777Z,19.63
2022-10-20T02:38:24.368Z,19.61
2022-10-20T02:39:26.921Z,19.63
2022-10-20T02:40:31.040Z,19.62
2022-10-20T02:41:33.055Z,19.62
2022-10-20T02:42:35.475Z,19.64
2022-10-20T02:43:37.477Z,19.62
2022-10-20T02:44:39.473Z,19.64
2022-10-20T02:45:42.460Z,19.63
2022-10-20T02:46:44.662Z,19.63
2022-10-20T02:47:46.692Z,19.63
2022-10-20T02:48:48.698Z,19.64
2022-10-20T02:49:51.163Z,19.64
2022-10-20T02:50:54.085Z,19.63
2022-10-20T02:51:58.031Z,19.64
2022-10-20T02:53:00.075Z,19.64
2022-10-20T02:54:15.868Z,19.64
2022-10-20T02:56:20.656Z,19.64
2022-10-20T02:57:22.655Z,19.63
2022-10-20T02:58:25.310Z,19.64
2022-10-20T02:59:27.474Z,19.64
2022-10-20T03:00:29.538Z,19.64
2022-10-20T03:01:31.650Z,19.65
2022-10-20T03:02:33.889Z,19.65
2022-10-20T03:03:35.864Z,19.65
2022-10-20T03:04:38.009Z,19.66
2022-10-20T03:05:40.620Z,19.66
2022-10-20T03:06:42.679Z,19.66
2022-10-20T03:07:45.696Z,19.66
2022-10-20T03:08:47.841Z,19.68
2022-10-20T03:09:50.293Z,19.67
2022-10-20T03:10:52.439Z,19.69
2022-10-20T03:11:54.540Z,19.68
2022-10-20T03:12:56.495Z,19.68
2022-10-20T03:13:59.770Z,19.69
2022-10-20T03:15:02.556Z,19.69
2022-10-20T03:16:05.319Z,19.70
2022-10-20T03:17:08.391Z,19.70
2022-10-20T03:18:11.461Z,19.70
2022-10-20T03:19:13.924Z,19.69
2022-10-20T03:20:17.615Z,19.71
2022-10-20T03:21:20.485Z,19.71
2022-10-20T03:22:22.711Z,19.70
2022-10-20T03:23:24.926Z,19.69
2022-10-20T03:24:27.465Z,19.71
2022-10-20T03:25:31.561Z,19.70
2022-10-20T03:26:33.773Z,19.70
2022-10-20T03:27:36.840Z,19.70
2022-10-20T03:28:39.546Z,19.70
2022-10-20T03:29:42.319Z,19.70
2022-10-20T03:30:45.287Z,19.70
2022-10-20T03:32:50.456Z,19.70
2022-10-20T03:33:52.813Z,19.71
2022-10-20T03:34:55.650Z,19.71
2022-10-20T03:35:58.233Z,19.71
2022-10-20T03:37:00.403Z,19.72
2022-10-20T03:38:03.269Z,19.72
2022-10-20T03:39:05.223Z,19.71
2022-10-20T03:40:08.891Z,19.72
2022-10-20T03:41:10.915Z,19.72
2022-10-20T03:42:14.172Z,19.72
2022-10-20T03:43:16.713Z,19.72
2022-10-20T03:44:19.193Z,19.71
2022-10-20T03:45:21.336Z,19.71
2022-10-20T03:46:24.154Z,19.70
2022-10-20T03:47:26.150Z,19.72
2022-10-20T03:48:28.737Z,19.72
2022-10-20T03:49:33.079Z,19.72
2022-10-20T03:50:37.782Z,19.71
2022-10-20T03:51:40.803Z,19.71
2022-10-20T03:52:42.946Z,19.71
2022-10-20T03:53:44.932Z,19.70
2022-10-20T03:54:47.521Z,19.70
2022-10-20T03:55:49.511Z,19.70
2022-10-20T03:56:52.797Z,19.71
2022-10-20T03:57:56.382Z,19.69
2022-10-20T03:58:58.920Z,19.70
2022-10-20T04:00:01.981Z,19.69
2022-10-20T04:01:07.021Z,19.70
2022-10-20T04:03:26.460Z,19.81
2022-10-20T04:04:28.872Z,19.71
2022-10-20T04:05:31.247Z,19.70
2022-10-20T04:06:33.886Z,19.71
2022-10-20T04:07:36.467Z,19.67
2022-10-20T04:08:38.886Z,19.67
2022-10-20T04:09:40.998Z,19.71
2022-10-20T04:10:43.185Z,19.70
2022-10-20T04:11:45.483Z,19.71
2022-10-20T04:12:47.980Z,19.72
2022-10-20T04:13:49.935Z,19.72
2022-10-20T04:14:51.949Z,19.72
2022-10-20T04:15:54.301Z,19.72
2022-10-20T04:16:56.491Z,19.73
2022-10-20T04:17:58.557Z,19.72
2022-10-20T04:19:00.553Z,19.72
2022-10-20T04:20:04.093Z,19.73
2022-10-20T04:21:06.356Z,19.72
2022-10-20T04:22:08.337Z,19.72
2022-10-20T04:23:10.331Z,19.72
2022-10-20T04:24:12.508Z,19.72
2022-10-20T04:25:14.759Z,19.71
2022-10-20T04:26:17.766Z,19.71
2022-10-20T04:27:20.334Z,19.71
2022-10-20T04:28:22.984Z,19.73
2022-10-20T04:29:26.957Z,19.72
2022-10-20T04:30:29.186Z,19.71
2022-10-20T04:31:31.695Z,19.72
2022-10-20T04:32:33.946Z,19.71
2022-10-20T04:33:35.936Z,19.72
2022-10-20T04:34:38.399Z,19.72
2022-10-20T04:35:40.438Z,19.73
2022-10-20T04:36:43.423Z,19.72
2022-10-20T04:37:45.552Z,19.73
2022-10-20T04:38:47.613Z,19.72
2022-10-20T04:39:50.731Z,19.72
2022-10-20T04:42:06.936Z,19.82
2022-10-20T04:43:08.941Z,19.70
2022-10-20T04:44:10.901Z,19.70
2022-10-20T04:45:12.899Z,19.70
2022-10-20T04:46:15.753Z,19.70
2022-10-20T04:47:17.873Z,19.71
2022-10-20T04:48:19.851Z,19.70
2022-10-20T04:49:22.388Z,19.71
2022-10-20T04:50:24.645Z,19.71
2022-10-20T04:51:28.952Z,19.72
2022-10-20T04:52:31.155Z,19.73
2022-10-20T04:53:33.699Z,19.71
2022-10-20T04:54:36.524Z,19.72
2022-10-20T04:55:38.520Z,19.72
2022-10-20T04:56:40.681Z,19.72
2022-10-20T04:57:42.781Z,19.72
2022-10-20T04:58:49.108Z,19.72
2022-10-20T04:59:51.140Z,19.72
2022-10-20T05:00:53.417Z,19.71
2022-10-20T05:01:55.457Z,19.71
2022-10-20T05:02:58.284Z,19.70
2022-10-20T05:04:01.530Z,19.71
2022-10-20T05:05:04.486Z,19.70
2022-10-20T05:06:16.549Z,19.70
2022-10-20T05:07:19.422Z,19.70
2022-10-20T05:08:22.508Z,19.70
2022-10-20T05:09:24.861Z,19.70
2022-10-20T05:10:27.545Z,19.69
2022-10-20T05:11:30.514Z,19.69
2022-10-20T05:12:33.718Z,19.69
2022-10-20T05:13:38.649Z,19.69
2022-10-20T05:14:41.903Z,19.69
2022-10-20T05:15:43.924Z,19.68
2022-10-20T05:16:47.396Z,19.69
2022-10-20T05:17:49.610Z,19.70
2022-10-20T05:18:51.653Z,19.69
2022-10-20T05:19:53.867Z,19.69
2022-10-20T05:21:08.351Z,19.69
2022-10-20T05:22:00.416Z,19.69
2022-10-20T05:23:02.994Z,19.68
2022-10-20T05:24:05.943Z,19.68
2022-10-20T05:25:31.245Z,19.68
2022-10-20T05:26:16.622Z,19.68
2022-10-20T05:27:18.820Z,19.69
2022-10-20T05:28:21.144Z,19.68
2022-10-20T05:29:23.679Z,19.68
2022-10-20T05:30:25.869Z,19.68
2022-10-20T05:31:28.741Z,19.68
2022-10-20T05:32:31.608Z,19.68
2022-10-20T05:33:34.999Z,19.68
2022-10-20T05:34:37.087Z,19.68
2022-10-20T05:35:39.700Z,19.68
2022-10-20T05:36:42.184Z,19.68
2022-10-20T05:37:45.316Z,19.68
2022-10-20T05:38:47.306Z,19.67
2022-10-20T05:39:49.881Z,19.68
2022-10-20T05:40:52.216Z,19.67
2022-10-20T05:41:54.336Z,19.67
2022-10-20T05:42:58.172Z,19.68
2022-10-20T05:44:02.365Z,19.67
2022-10-20T05:45:06.730Z,19.66
2022-10-20T05:46:10.323Z,19.67
2022-10-20T05:47:12.494Z,19.67
2022-10-20T05:48:15.636Z,19.66
2022-10-20T05:49:17.820Z,19.66
2022-10-20T05:50:20.565Z,19.67
2022-10-20T05:51:25.668Z,19.66
2022-10-20T05:52:28.653Z,19.66
2022-10-20T05:53:32.129Z,19.67
2022-10-20T05:54:34.903Z,19.66
2022-10-20T05:55:37.614Z,19.65
2022-10-20T05:56:39.865Z,19.65
2022-10-20T05:57:42.543Z,19.66
2022-10-20T05:58:44.636Z,19.66
2022-10-20T05:59:47.389Z,19.66
2022-10-20T06:00:49.619Z,19.65
2022-10-20T06:01:52.153Z,19.66
2022-10-20T06:02:55.724Z,19.67
2022-10-20T06:03:59.458Z,19.66
2022-10-20T06:05:01.674Z,19.66
2022-10-20T06:06:05.442Z,19.66
2022-10-20T06:07:07.784Z,19.66
2022-10-20T06:08:09.793Z,19.66
2022-10-20T06:09:11.989Z,19.67
2022-10-20T06:10:16.299Z,19.66
2022-10-20T06:11:18.563Z,19.67
2022-10-20T06:12:21.037Z,19.66
2022-10-20T06:13:24.101Z,19.67
2022-10-20T06:14:26.398Z,19.68
2022-10-20T06:15:29.408Z,19.67
2022-10-20T06:16:31.615Z,19.67
2022-10-20T06:17:33.692Z,19.67
2022-10-20T06:18:35.823Z,19.65
2022-10-20T06:19:37.792Z,19.65
2022-10-20T06:20:40.284Z,19.65
2022-10-20T06:22:44.460Z,19.66
2022-10-20T06:23:47.140Z,19.64
2022-10-20T06:24:49.308Z,19.64
2022-10-20T06:25:52.747Z,19.65
2022-10-20T06:26:56.522Z,19.65
2022-10-20T06:27:58.727Z,19.65
2022-10-20T06:29:04.386Z,19.64
2022-10-20T06:30:06.315Z,19.64
2022-10-20T06:32:25.066Z,19.74
2022-10-20T06:33:30.220Z,19.64
2022-10-20T06:34:32.602Z,19.63
2022-10-20T06:35:34.975Z,19.61
2022-10-20T06:36:38.494Z,19.64
2022-10-20T06:37:41.004Z,19.63
2022-10-20T06:38:43.793Z,19.64
2022-10-20T06:39:46.197Z,19.64
2022-10-20T06:40:48.853Z,19.64
2022-10-20T06:41:52.629Z,19.64
2022-10-20T06:43:58.957Z,19.64
2022-10-20T06:45:01.032Z,19.64
2022-10-20T06:46:05.800Z,19.64
2022-10-20T06:47:08.761Z,19.64
2022-10-20T06:48:10.910Z,19.63
2022-10-20T06:49:13.462Z,19.62
2022-10-20T06:50:16.286Z,19.61
2022-10-20T06:51:18.943Z,19.61
2022-10-20T06:52:22.843Z,19.61
2022-10-20T06:53:25.458Z,19.63
2022-10-20T06:54:27.819Z,19.62
2022-10-20T06:55:29.964Z,19.61
2022-10-20T06:56:34.445Z,19.61
2022-10-20T06:57:37.173Z,19.61
2022-10-20T06:58:40.697Z,19.62
2022-10-20T06:59:43.213Z,19.61
2022-10-20T07:00:45.655Z,19.61
2022-10-20T07:01:47.877Z,19.61
2022-10-20T07:02:50.117Z,19.59
2022-10-20T07:03:54.435Z,19.59
2022-10-20T07:04:57.083Z,19.60
2022-10-20T07:05:59.037Z,19.59
2022-10-20T07:07:01.285Z,19.58
2022-10-20T07:08:03.706Z,19.58
2022-10-20T07:09:06.681Z,19.58
2022-10-20T07:10:10.484Z,19.58
2022-10-20T07:11:14.325Z,19.58
2022-10-20T07:12:17.132Z,19.57
2022-10-20T07:13:19.186Z,19.58
2022-10-20T07:14:21.189Z,19.57
2022-10-20T07:15:24.291Z,19.47
2022-10-20T07:16:28.724Z,19.56
2022-10-20T07:17:31.924Z,19.56
2022-10-20T07:18:36.073Z,19.57
2022-10-20T07:19:39.408Z,19.57
2022-10-20T07:20:42.029Z,19.57
2022-10-20T07:21:45.661Z,19.56
2022-10-20T07:22:48.020Z,19.55
2022-10-20T07:23:51.184Z,19.56
2022-10-20T07:24:53.188Z,19.54
2022-10-20T07:26:03.542Z,19.55
2022-10-20T07:27:05.722Z,19.54
2022-10-20T07:28:07.922Z,19.53
2022-10-20T07:29:10.131Z,19.53
2022-10-20T07:30:13.013Z,19.52
2022-10-20T07:31:17.341Z,19.52
2022-10-20T07:32:20.293Z,19.52
2022-10-20T07:33:22.775Z,19.52
2022-10-20T07:34:26.690Z,19.51
2022-10-20T07:35:31.022Z,19.51
2022-10-20T07:36:36.002Z,19.50
2022-10-20T07:37:38.354Z,19.50
2022-10-20T07:38:41.567Z,19.50
2022-10-20T07:39:44.147Z,19.49
2022-10-20T07:40:46.988Z,19.49
2022-10-20T07:41:49.560Z,19.48
2022-10-20T07:42:53.062Z,19.47
2022-10-20T07:43:56.155Z,19.48
2022-10-20T07:44:58.422Z,19.48
2022-10-20T07:46:00.998Z,19.47
2022-10-20T07:47:05.137Z,19.48
2022-10-20T07:48:08.236Z,19.47
2022-10-20T07:50:16.272Z,19.47
2022-10-20T07:51:24.792Z,19.46
2022-10-20T07:52:26.920Z,19.46
2022-10-20T07:53:29.000Z,19.41
2022-10-20T07:54:32.064Z,19.35
2022-10-20T07:55:38.582Z,19.32
2022-10-20T07:56:42.019Z,19.32
2022-10-20T07:57:44.729Z,19.33
2022-10-20T07:58:48.122Z,19.34
2022-10-20T07:59:50.253Z,19.35
2022-10-20T08:00:52.856Z,19.35
2022-10-20T08:02:00.081Z,19.36
2022-10-20T08:03:02.850Z,19.36
2022-10-20T08:04:05.657Z,19.37
2022-10-20T08:05:09.747Z,19.37
2022-10-20T08:06:12.272Z,19.38
2022-10-20T08:07:14.370Z,19.39
2022-10-20T08:08:17.703Z,19.38
2022-10-20T08:09:19.758Z,19.40
2022-10-20T08:10:29.061Z,19.39
2022-10-20T08:11:43.910Z,19.40
2022-10-20T08:12:48.640Z,19.41
2022-10-20T08:13:52.380Z,19.41
2022-10-20T08:16:27.253Z,19.42
2022-10-20T08:17:29.685Z,19.41
2022-10-20T08:18:36.194Z,19.42
2022-10-20T08:19:41.892Z,19.41
2022-10-20T08:20:45.315Z,19.42
2022-10-20T08:21:48.009Z,19.43
2022-10-20T08:22:50.134Z,19.39
2022-10-20T08:23:52.202Z,19.39
2022-10-20T08:24:55.700Z,19.45
2022-10-20T08:25:57.883Z,19.44
2022-10-20T08:27:00.650Z,19.45
2022-10-20T08:28:03.512Z,19.46
2022-10-20T08:29:05.519Z,19.44
2022-10-20T08:30:24.542Z,19.45
2022-10-20T08:31:12.876Z,19.45
2022-10-20T08:32:14.969Z,19.44
2022-10-20T08:33:16.940Z,19.44
2022-10-20T08:34:19.289Z,19.44
2022-10-20T08:35:21.675Z,19.42
2022-10-20T08:36:23.888Z,19.43
2022-10-20T08:37:29.324Z,19.43
2022-10-20T08:38:33.386Z,19.42
2022-10-20T08:39:35.402Z,19.21
2022-10-20T08:40:37.596Z,18.83
2022-10-20T08:42:51.708Z,18.57
2022-10-20T08:43:57.361Z,18.59
2022-10-20T08:45:00.459Z,18.63
2022-10-20T08:46:02.543Z,18.68
2022-10-20T08:47:07.423Z,18.72
2022-10-20T08:48:13.402Z,18.76
2022-10-20T08:50:35.414Z,18.95
2022-10-20T08:51:39.097Z,18.87
2022-10-20T08:52:42.141Z,18.90
2022-10-20T08:53:45.635Z,18.92
2022-10-20T08:54:49.149Z,18.96
2022-10-20T08:55:52.333Z,18.98
2022-10-20T08:56:54.594Z,19.00
2022-10-20T08:58:04.440Z,19.04
2022-10-20T08:59:28.698Z,19.06
2022-10-20T09:00:31.926Z,19.09
2022-10-20T09:01:34.688Z,19.10
2022-10-20T09:02:37.501Z,19.12
2022-10-20T09:03:39.461Z,19.13
2022-10-20T09:06:04.796Z,19.25
2022-10-20T09:07:25.607Z,19.17
2022-10-20T09:08:28.899Z,19.18
2022-10-20T09:09:32.465Z,19.19
2022-10-20T09:10:36.239Z,19.20
2022-10-20T09:11:39.447Z,19.21
2022-10-20T09:12:43.295Z,19.22
2022-10-20T09:13:46.116Z,19.22
2022-10-20T09:14:48.214Z,19.23
2022-10-20T09:17:16.186Z,19.38
2022-10-20T09:18:18.286Z,19.27
2022-10-20T09:19:22.157Z,19.27
2022-10-20T09:20:44.838Z,19.28
2022-10-20T09:21:49.311Z,19.27
2022-10-20T09:22:52.616Z,19.25
2022-10-20T09:23:56.814Z,19.23
2022-10-20T09:24:58.970Z,19.21
2022-10-20T09:26:01.550Z,19.19
2022-10-20T09:27:21.938Z,19.19
2022-10-20T09:28:27.204Z,19.17
2022-10-20T09:29:37.024Z,19.13
2022-10-20T09:30:41.401Z,19.08
2022-10-20T09:31:45.685Z,19.04
2022-10-20T09:32:48.373Z,19.02
2022-10-20T09:33:51.477Z,19.02
2022-10-20T09:36:13.922Z,19.10
2022-10-20T09:37:17.610Z,19.00
2022-10-20T09:38:22.027Z,18.99
2022-10-20T09:39:27.341Z,18.99
2022-10-20T09:40:30.270Z,18.99
2022-10-20T09:41:32.642Z,18.99
2022-10-20T09:42:36.286Z,18.98
2022-10-20T09:43:53.228Z,18.96
2022-10-20T09:46:10.485Z,19.05
2022-10-20T09:47:14.055Z,18.95
2022-10-20T09:48:25.767Z,18.93
2022-10-20T09:50:42.329Z,19.06
2022-10-20T09:51:47.507Z,18.92
2022-10-20T09:52:50.734Z,18.91
2022-10-20T09:54:04.777Z,18.89
2022-10-20T09:55:30.266Z,18.88
2022-10-20T09:57:49.820Z,18.99
2022-10-20T09:58:52.497Z,18.87
2022-10-20T09:59:54.573Z,18.84
2022-10-20T10:01:13.448Z,18.83
2022-10-20T10:02:22.402Z,18.83
2022-10-20T10:03:25.454Z,18.83
2022-10-20T10:04:38.837Z,18.84
2022-10-20T10:05:41.364Z,18.85
2022-10-20T10:06:44.061Z,18.86
2022-10-20T10:09:32.101Z,19.00
2022-10-20T10:10:34.258Z,18.90
2022-10-20T10:11:36.465Z,18.91
2022-10-20T10:12:39.107Z,18.92
2022-10-20T10:13:44.008Z,18.93
2022-10-20T10:15:00.651Z,18.94
2022-10-20T10:16:08.229Z,18.96
2022-10-20T10:17:11.419Z,18.98
2022-10-20T10:18:14.569Z,18.99
2022-10-20T10:19:18.610Z,19.00
2022-10-20T10:20:27.681Z,19.02
2022-10-20T10:21:30.760Z,19.02
2022-10-20T10:22:33.641Z,19.02
2022-10-20T12:27:29.729Z,16.17
2022-10-20T12:28:32.553Z,16.11
2022-10-20T12:29:38.765Z,16.18
2022-10-20T12:30:42.365Z,16.27
2022-10-20T12:32:25.601Z,16.39
2022-10-20T12:33:43.729Z,16.50
2022-10-20T12:34:48.932Z,16.71
2022-10-20T12:36:00.168Z,16.85
2022-10-20T12:38:20.603Z,17.24
2022-10-20T12:39:23.935Z,17.23
2022-10-20T12:40:32.740Z,17.33
2022-10-20T12:41:36.445Z,17.44
2022-10-20T12:42:49.341Z,17.54
2022-10-20T12:43:57.467Z,17.64
2022-10-20T12:45:05.801Z,17.75
2022-10-20T12:46:10.052Z,17.84
2022-10-20T12:47:30.021Z,17.93
2022-10-20T12:48:33.177Z,18.01
2022-10-20T12:49:40.118Z,18.10
2022-10-20T12:50:46.169Z,18.17
2022-10-20T12:51:52.708Z,18.23
2022-10-20T12:52:54.869Z,18.30
2022-10-20T12:54:00.480Z,18.35
2022-10-20T12:55:23.561Z,18.42
2022-10-20T12:56:28.383Z,18.46
2022-10-20T12:59:09.406Z,18.69
2022-10-20T13:00:21.911Z,18.60
2022-10-20T13:01:26.435Z,18.66
2022-10-20T13:02:30.590Z,18.69
2022-10-20T13:03:41.842Z,18.73
2022-10-20T13:05:08.690Z,18.75
2022-10-20T13:06:28.042Z,18.79
2022-10-20T13:07:49.634Z,18.82
2022-10-20T13:10:33.409Z,18.98
2022-10-20T13:11:40.276Z,18.88
2022-10-20T13:12:42.418Z,18.89
2022-10-20T13:14:01.636Z,18.92
2022-10-20T13:15:05.272Z,18.93
2022-10-20T13:16:15.830Z,18.95
2022-10-20T13:18:39.617Z,19.10
2022-10-20T13:21:10.307Z,19.11
2022-10-20T13:22:34.241Z,19.01
2022-10-20T13:23:38.390Z,19.02
2022-10-20T13:24:44.906Z,18.99
2022-10-20T13:25:49.135Z,19.00
2022-10-20T13:26:55.628Z,18.99
2022-10-20T13:28:07.507Z,18.99
2022-10-20T13:29:22.073Z,18.99
2022-10-20T13:30:24.740Z,18.99
2022-10-20T13:31:35.833Z,18.98
2022-10-20T13:33:01.604Z,18.98
2022-10-20T13:35:29.110Z,19.10
2022-10-20T13:36:47.268Z,19.00
2022-10-20T13:39:23.952Z,19.10
2022-10-20T13:40:36.659Z,18.99
2022-10-20T13:42:01.046Z,18.99
2022-10-20T13:43:22.835Z,19.00
2022-10-20T13:44:48.798Z,19.00
2022-10-20T13:45:54.734Z,18.98
2022-10-20T13:47:04.214Z,18.96
2022-10-20T13:49:53.047Z,19.03
2022-10-20T13:51:00.845Z,18.92
2022-10-20T13:52:05.954Z,18.91
2022-10-20T13:54:31.181Z,19.04
2022-10-20T13:57:01.945Z,19.06
2022-10-20T13:58:09.857Z,18.98
2022-10-20T13:59:27.918Z,18.98
2022-10-20T14:00:31.961Z,18.98
2022-10-20T14:01:35.220Z,19.02
2022-10-20T14:02:38.831Z,19.04
2022-10-20T14:03:44.340Z,19.04
2022-10-20T14:04:48.208Z,19.06
2022-10-20T14:05:50.502Z,19.07
2022-10-20T14:06:52.850Z,19.10
2022-10-20T14:07:55.138Z,19.11
2022-10-20T14:08:59.903Z,19.13
2022-10-20T14:10:02.129Z,19.14
2022-10-20T14:11:04.487Z,19.16
2022-10-20T14:12:21.602Z,19.18
2022-10-20T14:13:29.375Z,19.18
2022-10-20T14:14:32.453Z,19.19
2022-10-20T14:15:36.605Z,19.20
2022-10-20T14:16:38.750Z,19.20
2022-10-20T14:17:41.087Z,19.21
2022-10-20T14:18:43.167Z,19.22
2022-10-20T14:19:46.890Z,19.22
2022-10-20T14:21:07.607Z,19.23
2022-10-20T14:22:16.882Z,19.23
2022-10-20T14:23:19.983Z,19.25
2022-10-20T14:25:38.762Z,19.37
2022-10-20T14:26:42.203Z,19.25
2022-10-20T14:27:44.887Z,19.26
2022-10-20T14:28:48.110Z,19.25
2022-10-20T14:29:51.599Z,19.26
2022-10-20T14:30:55.026Z,19.28
2022-10-20T14:31:57.757Z,19.28
2022-10-20T14:33:00.395Z,19.30
2022-10-20T14:34:02.927Z,19.31
2022-10-20T14:35:23.039Z,19.32
2022-10-20T14:37:37.884Z,19.33
2022-10-20T14:38:40.929Z,19.33
2022-10-20T14:39:43.173Z,19.33
2022-10-20T14:42:23.468Z,19.44
2022-10-20T14:43:34.887Z,19.32
2022-10-20T14:44:37.021Z,19.31
2022-10-20T14:45:39.886Z,19.30
2022-10-20T14:46:45.092Z,19.29
2022-10-20T14:47:47.259Z,19.30
2022-10-20T14:48:49.659Z,19.30
2022-10-20T14:49:53.732Z,19.32
2022-10-20T14:50:55.990Z,19.26
2022-10-20T14:51:59.787Z,19.33
2022-10-20T14:53:25.494Z,19.33
2022-10-20T14:54:38.821Z,19.33
2022-10-20T14:55:41.701Z,19.33
2022-10-20T14:57:59.570Z,19.44
2022-10-20T14:59:04.084Z,19.35
2022-10-20T15:00:26.531Z,19.35
2022-10-20T15:01:30.833Z,19.35
2022-10-20T15:02:38.866Z,19.36
2022-10-20T15:03:41.129Z,19.36
2022-10-20T15:04:45.450Z,19.37
2022-10-20T15:05:50.777Z,19.37
2022-10-20T15:07:12.579Z,19.37
2022-10-20T15:08:26.325Z,19.35
2022-10-20T15:09:44.231Z,19.34
2022-10-20T15:10:47.179Z,19.32
2022-10-20T15:11:49.238Z,19.32
2022-10-20T15:12:52.196Z,19.32
2022-10-20T15:13:55.315Z,19.31
2022-10-20T15:16:36.754Z,19.42
2022-10-20T15:19:11.561Z,19.43
2022-10-20T17:07:09.778Z,16.21
2022-10-20T17:08:12.562Z,16.13
2022-10-20T17:09:14.655Z,16.20
2022-10-20T17:10:18.925Z,16.29
2022-10-20T17:11:26.349Z,16.39
2022-10-20T17:12:29.194Z,16.50
2022-10-20T17:13:32.253Z,16.62
2022-10-20T17:15:37.873Z,16.86
2022-10-20T17:16:40.842Z,16.98
2022-10-20T17:17:43.158Z,17.09
2022-10-20T17:18:46.672Z,17.20
2022-10-20T17:19:49.501Z,17.31
2022-10-20T17:24:03.089Z,17.69
2022-10-20T17:26:14.885Z,17.85
2022-10-20T17:28:19.586Z,18.00
2022-10-20T17:29:23.649Z,18.06
2022-10-20T17:30:25.913Z,18.12
2022-10-20T17:35:38.045Z,18.34
2022-10-20T17:36:40.778Z,18.38
2022-10-20T17:37:42.975Z,18.42
2022-10-20T17:43:59.238Z,18.55
2022-10-20T17:45:01.926Z,18.54
2022-10-20T17:46:06.229Z,18.54
2022-10-20T17:47:09.491Z,18.56
2022-10-20T17:48:11.716Z,18.58
2022-10-20T17:49:14.839Z,18.59
2022-10-20T17:50:17.719Z,18.62
2022-10-20T17:51:24.303Z,18.63
2022-10-20T17:52:28.709Z,18.66
2022-10-20T17:53:32.022Z,18.68
2022-10-20T17:54:35.251Z,18.68
2022-10-20T17:55:37.285Z,18.70
2022-10-20T17:56:39.572Z,18.70
2022-10-20T17:57:41.983Z,18.70
2022-10-20T17:58:45.506Z,18.71
2022-10-20T17:59:53.460Z,18.73
2022-10-20T18:00:56.663Z,18.73
2022-10-20T18:01:57.683Z,18.74
2022-10-20T18:03:00.092Z,18.73
2022-10-20T18:05:20.091Z,18.83
2022-10-20T18:06:23.299Z,18.71
2022-10-20T18:07:25.518Z,18.72
2022-10-20T18:08:28.134Z,18.73
2022-10-20T18:09:30.823Z,18.73
2022-10-20T18:10:33.072Z,18.74
2022-10-20T18:11:35.711Z,18.74
2022-10-20T18:12:38.464Z,18.75
2022-10-20T18:13:41.192Z,18.79
2022-10-20T18:14:44.909Z,18.79
2022-10-20T18:15:46.968Z,18.81
2022-10-20T18:16:49.065Z,18.83
2022-10-20T18:17:51.133Z,18.83
2022-10-20T18:18:54.604Z,18.85
2022-10-20T18:19:58.811Z,18.86
2022-10-20T18:21:01.172Z,18.87
2022-10-20T18:22:03.741Z,18.88
2022-10-20T18:23:06.867Z,18.89
2022-10-20T18:24:11.138Z,18.90
2022-10-20T18:25:13.604Z,18.92
2022-10-20T18:26:18.353Z,18.92
2022-10-20T18:27:21.403Z,18.95
2022-10-20T18:28:23.657Z,18.96
2022-10-20T18:29:26.038Z,18.96
2022-10-20T18:30:29.130Z,18.98
2022-10-20T18:31:31.807Z,18.98
2022-10-20T18:32:34.927Z,18.98
2022-10-20T18:33:38.477Z,18.97
2022-10-20T18:34:40.671Z,18.98
2022-10-20T18:35:43.916Z,18.98
2022-10-20T18:36:46.516Z,18.99
2022-10-20T18:37:48.755Z,19.01
2022-10-20T18:38:50.875Z,19.00
2022-10-20T18:39:52.992Z,19.00
2022-10-20T18:40:55.191Z,19.01
2022-10-20T18:41:59.531Z,19.02
2022-10-20T18:43:01.661Z,19.01
2022-10-20T18:45:20.367Z,19.12
2022-10-20T18:46:22.651Z,19.01
2022-10-20T18:47:24.755Z,19.01
2022-10-20T18:48:28.128Z,19.01
2022-10-20T18:49:30.345Z,19.01
2022-10-20T18:50:32.646Z,19.01
2022-10-20T18:51:35.718Z,19.02
2022-10-20T18:52:37.877Z,19.03
2022-10-20T18:54:43.493Z,19.04
2022-10-20T18:55:45.469Z,19.04
2022-10-20T18:56:47.675Z,19.04
2022-10-20T18:57:49.693Z,19.01
2022-10-20T18:58:53.877Z,18.98
2022-10-20T18:59:55.902Z,18.95
2022-10-20T19:01:03.642Z,18.90
2022-10-20T19:02:05.939Z,18.86
2022-10-20T19:03:08.437Z,18.83
2022-10-20T19:04:12.560Z,18.76
2022-10-20T19:05:15.784Z,18.74
2022-10-20T19:06:33.569Z,18.72